Nasosnyy, Azerbaijan
Current Conditions -  °F | °C
As of 11:00 AM on Monday 26 Jan 2015 (Local Time) from UBBB Reporting Station
Broken Clouds Broken Clouds  
Wind Chill: 32°   Ceiling: 1700
Heat Index: 41°   Visibility: 6mi
Dew Point: 36°   Wind: 21mph
Humidity: 81%   Direction: 140°SE
Pressure: 30.42"   Gusts: NA
Location:  40.62°N, 49.55°E
Report Text: UBBB 260600Z 14018KT 9999 BKN017 05/02 Q1030 88CLRD70NOSIG
Loading
Personal Weather Stations






























Interactive Weather Map New forecast layout! Learn more

10-Day Weather Forecast

Advertisements
Track Severe Weather on mobile